sensor_id;sensor_type;location;lat;lon;timestamp;P1;durP1;ratioP1;P2;durP2;ratioP2
43994;SDS011;51687;52.160;5.298;2023-09-08T00:00:19;8.60;;;7.85;;
43994;SDS011;51687;52.160;5.298;2023-09-08T00:02:46;8.73;;;7.93;;
43994;SDS011;51687;52.160;5.298;2023-09-08T00:05:14;8.55;;;7.60;;
43994;SDS011;51687;52.160;5.298;2023-09-08T00:07:41;9.30;;;8.25;;
43994;SDS011;51687;52.160;5.298;2023-09-08T00:10:09;12.50;;;8.90;;
43994;SDS011;51687;52.160;5.298;2023-09-08T00:15:05;8.32;;;7.72;;
43994;SDS011;51687;52.160;5.298;2023-09-08T00:17:33;8.02;;;7.40;;
43994;SDS011;51687;52.160;5.298;2023-09-08T00:20:00;8.25;;;7.65;;
43994;SDS011;51687;52.160;5.298;2023-09-08T00:22:27;8.93;;;7.93;;
43994;SDS011;51687;52.160;5.298;2023-09-08T00:24:54;8.93;;;8.32;;
43994;SDS011;51687;52.160;5.298;2023-09-08T00:27:21;10.07;;;8.30;;
43994;SDS011;51687;52.160;5.298;2023-09-08T00:29:49;8.88;;;8.27;;
43994;SDS011;51687;52.160;5.298;2023-09-08T00:32:16;8.80;;;8.00;;
43994;SDS011;51687;52.160;5.298;2023-09-08T00:34:43;9.57;;;8.55;;
43994;SDS011;51687;52.160;5.298;2023-09-08T00:37:10;9.02;;;8.32;;
43994;SDS011;51687;52.160;5.298;2023-09-08T00:39:37;9.32;;;8.52;;
43994;SDS011;51687;52.160;5.298;2023-09-08T00:42:05;9.27;;;8.67;;
43994;SDS011;51687;52.160;5.298;2023-09-08T00:44:35;9.07;;;8.43;;
43994;SDS011;51687;52.160;5.298;2023-09-08T00:47:03;8.68;;;8.05;;
43994;SDS011;51687;52.160;5.298;2023-09-08T00:49:30;9.87;;;8.90;;
43994;SDS011;51687;52.160;5.298;2023-09-08T00:51:57;9.25;;;8.48;;
43994;SDS011;51687;52.160;5.298;2023-09-08T00:54:25;8.50;;;7.85;;
43994;SDS011;51687;52.160;5.298;2023-09-08T00:56:54;8.40;;;7.70;;
43994;SDS011;51687;52.160;5.298;2023-09-08T00:59:23;8.50;;;7.95;;
43994;SDS011;51687;52.160;5.298;2023-09-08T01:01:51;8.68;;;8.07;;
43994;SDS011;51687;52.160;5.298;2023-09-08T01:04:18;9.03;;;8.23;;
43994;SDS011;51687;52.160;5.298;2023-09-08T01:06:45;9.07;;;8.27;;
43994;SDS011;51687;52.160;5.298;2023-09-08T01:09:16;8.05;;;7.45;;
43994;SDS011;51687;52.160;5.298;2023-09-08T01:11:44;8.68;;;8.05;;
43994;SDS011;51687;52.160;5.298;2023-09-08T01:14:12;8.80;;;8.20;;
43994;SDS011;51687;52.160;5.298;2023-09-08T01:16:39;8.65;;;8.05;;
43994;SDS011;51687;52.160;5.298;2023-09-08T01:19:09;8.73;;;7.88;;
43994;SDS011;51687;52.160;5.298;2023-09-08T01:26:46;10.30;;;9.50;;
43994;SDS011;51687;52.160;5.298;2023-09-08T01:29:15;8.70;;;8.00;;
43994;SDS011;51687;52.160;5.298;2023-09-08T01:31:42;8.30;;;7.78;;
43994;SDS011;51687;52.160;5.298;2023-09-08T01:34:11;8.05;;;7.10;;
43994;SDS011;51687;52.160;5.298;2023-09-08T01:36:39;8.15;;;7.55;;
43994;SDS011;51687;52.160;5.298;2023-09-08T01:39:06;8.80;;;8.03;;
43994;SDS011;51687;52.160;5.298;2023-09-08T01:41:33;8.32;;;7.50;;
43994;SDS011;51687;52.160;5.298;2023-09-08T01:44:00;8.48;;;7.70;;
43994;SDS011;51687;52.160;5.298;2023-09-08T01:46:34;8.77;;;7.88;;
43994;SDS011;51687;52.160;5.298;2023-09-08T01:49:01;7.63;;;7.05;;
43994;SDS011;51687;52.160;5.298;2023-09-08T01:51:28;7.75;;;7.03;;
43994;SDS011;51687;52.160;5.298;2023-09-08T01:53:56;8.95;;;7.97;;
43994;SDS011;51687;52.160;5.298;2023-09-08T01:56:22;8.10;;;7.50;;
43994;SDS011;51687;52.160;5.298;2023-09-08T01:58:49;8.27;;;7.68;;
43994;SDS011;51687;52.160;5.298;2023-09-08T02:01:16;8.38;;;7.50;;
43994;SDS011;51687;52.160;5.298;2023-09-08T02:03:43;7.75;;;7.13;;
43994;SDS011;51687;52.160;5.298;2023-09-08T02:06:09;7.97;;;7.38;;
43994;SDS011;51687;52.160;5.298;2023-09-08T02:08:37;7.93;;;7.30;;
43994;SDS011;51687;52.160;5.298;2023-09-08T02:11:04;7.68;;;7.18;;
43994;SDS011;51687;52.160;5.298;2023-09-08T02:13:30;7.88;;;7.25;;
43994;SDS011;51687;52.160;5.298;2023-09-08T02:15:57;7.88;;;7.18;;
43994;SDS011;51687;52.160;5.298;2023-09-08T02:18:25;9.07;;;8.32;;
43994;SDS011;51687;52.160;5.298;2023-09-08T02:23:19;7.90;;;7.22;;
43994;SDS011;51687;52.160;5.298;2023-09-08T02:25:45;7.72;;;7.03;;
43994;SDS011;51687;52.160;5.298;2023-09-08T02:28:12;7.25;;;6.75;;
43994;SDS011;51687;52.160;5.298;2023-09-08T02:30:39;7.85;;;7.15;;
43994;SDS011;51687;52.160;5.298;2023-09-08T02:33:05;7.32;;;6.72;;
43994;SDS011;51687;52.160;5.298;2023-09-08T02:35:35;8.05;;;7.35;;
43994;SDS011;51687;52.160;5.298;2023-09-08T02:38:05;9.75;;;7.18;;
43994;SDS011;51687;52.160;5.298;2023-09-08T02:40:32;7.78;;;7.28;;
43994;SDS011;51687;52.160;5.298;2023-09-08T02:43:01;8.05;;;7.45;;
43994;SDS011;51687;52.160;5.298;2023-09-08T02:45:28;8.13;;;7.32;;
43994;SDS011;51687;52.160;5.298;2023-09-08T02:47:58;8.70;;;8.00;;
43994;SDS011;51687;52.160;5.298;2023-09-08T02:50:25;8.23;;;7.43;;
43994;SDS011;51687;52.160;5.298;2023-09-08T02:52:51;8.32;;;7.43;;
43994;SDS011;51687;52.160;5.298;2023-09-08T02:55:19;8.10;;;7.57;;
43994;SDS011;51687;52.160;5.298;2023-09-08T02:57:46;7.82;;;7.20;;
43994;SDS011;51687;52.160;5.298;2023-09-08T03:00:13;8.27;;;7.53;;
43994;SDS011;51687;52.160;5.298;2023-09-08T03:02:40;8.82;;;8.20;;
43994;SDS011;51687;52.160;5.298;2023-09-08T03:05:07;8.63;;;7.88;;
43994;SDS011;51687;52.160;5.298;2023-09-08T03:07:34;9.80;;;9.10;;
43994;SDS011;51687;52.160;5.298;2023-09-08T03:10:03;8.68;;;8.00;;
43994;SDS011;51687;52.160;5.298;2023-09-08T03:12:30;8.52;;;7.82;;
43994;SDS011;51687;52.160;5.298;2023-09-08T03:14:57;7.97;;;7.38;;
43994;SDS011;51687;52.160;5.298;2023-09-08T03:17:24;9.50;;;8.80;;
43994;SDS011;51687;52.160;5.298;2023-09-08T03:19:51;7.85;;;7.20;;
43994;SDS011;51687;52.160;5.298;2023-09-08T03:22:18;8.65;;;7.85;;
43994;SDS011;51687;52.160;5.298;2023-09-08T03:24:44;8.30;;;7.70;;
43994;SDS011;51687;52.160;5.298;2023-09-08T03:27:11;8.43;;;7.70;;
43994;SDS011;51687;52.160;5.298;2023-09-08T03:29:38;8.65;;;8.05;;
43994;SDS011;51687;52.160;5.298;2023-09-08T03:32:05;8.27;;;7.57;;
43994;SDS011;51687;52.160;5.298;2023-09-08T03:34:32;8.80;;;8.20;;
43994;SDS011;51687;52.160;5.298;2023-09-08T03:36:58;8.23;;;7.63;;
43994;SDS011;51687;52.160;5.298;2023-09-08T03:39:25;8.27;;;7.78;;
43994;SDS011;51687;52.160;5.298;2023-09-08T03:41:52;8.90;;;8.10;;
43994;SDS011;51687;52.160;5.298;2023-09-08T03:44:19;9.18;;;8.50;;
43994;SDS011;51687;52.160;5.298;2023-09-08T03:46:46;8.98;;;8.27;;
43994;SDS011;51687;52.160;5.298;2023-09-08T03:49:12;8.60;;;8.02;;
43994;SDS011;51687;52.160;5.298;2023-09-08T03:51:39;9.80;;;8.90;;
43994;SDS011;51687;52.160;5.298;2023-09-08T03:54:06;8.55;;;7.95;;
43994;SDS011;51687;52.160;5.298;2023-09-08T03:56:33;9.60;;;7.80;;
43994;SDS011;51687;52.160;5.298;2023-09-08T03:58:59;8.55;;;7.85;;
43994;SDS011;51687;52.160;5.298;2023-09-08T04:01:26;8.35;;;7.75;;
43994;SDS011;51687;52.160;5.298;2023-09-08T04:03:53;7.78;;;7.07;;
43994;SDS011;51687;52.160;5.298;2023-09-08T04:06:20;9.30;;;8.05;;
43994;SDS011;51687;52.160;5.298;2023-09-08T04:08:50;9.45;;;8.82;;
43994;SDS011;51687;52.160;5.298;2023-09-08T04:11:17;8.20;;;7.70;;
43994;SDS011;51687;52.160;5.298;2023-09-08T04:13:43;8.70;;;8.00;;
43994;SDS011;51687;52.160;5.298;2023-09-08T04:16:10;8.38;;;7.68;;
43994;SDS011;51687;52.160;5.298;2023-09-08T04:18:37;8.32;;;7.63;;
43994;SDS011;51687;52.160;5.298;2023-09-08T04:21:06;8.30;;;7.80;;
43994;SDS011;51687;52.160;5.298;2023-09-08T04:23:33;8.25;;;7.60;;
43994;SDS011;51687;52.160;5.298;2023-09-08T04:26:01;8.30;;;7.70;;
43994;SDS011;51687;52.160;5.298;2023-09-08T04:28:28;8.23;;;7.63;;
43994;SDS011;51687;52.160;5.298;2023-09-08T04:30:55;8.82;;;8.13;;
43994;SDS011;51687;52.160;5.298;2023-09-08T04:33:23;10.10;;;9.20;;
43994;SDS011;51687;52.160;5.298;2023-09-08T04:38:17;9.90;;;9.10;;
43994;SDS011;51687;52.160;5.298;2023-09-08T04:40:47;9.57;;;8.70;;
43994;SDS011;51687;52.160;5.298;2023-09-08T04:43:14;9.15;;;8.45;;
43994;SDS011;51687;52.160;5.298;2023-09-08T04:45:41;10.15;;;9.15;;
43994;SDS011;51687;52.160;5.298;2023-09-08T04:48:09;9.32;;;8.63;;
43994;SDS011;51687;52.160;5.298;2023-09-08T04:50:36;10.55;;;9.38;;
43994;SDS011;51687;52.160;5.298;2023-09-08T04:53:03;10.82;;;10.02;;
43994;SDS011;51687;52.160;5.298;2023-09-08T04:55:30;10.85;;;10.05;;
43994;SDS011;51687;52.160;5.298;2023-09-08T04:57:57;11.77;;;10.90;;
43994;SDS011;51687;52.160;5.298;2023-09-08T05:00:24;10.05;;;9.25;;
43994;SDS011;51687;52.160;5.298;2023-09-08T05:02:52;10.68;;;9.85;;
43994;SDS011;51687;52.160;5.298;2023-09-08T05:05:19;10.18;;;9.43;;
43994;SDS011;51687;52.160;5.298;2023-09-08T05:07:46;10.48;;;9.70;;
43994;SDS011;51687;52.160;5.298;2023-09-08T05:10:14;10.80;;;9.73;;
43994;SDS011;51687;52.160;5.298;2023-09-08T05:12:41;10.02;;;9.32;;
43994;SDS011;51687;52.160;5.298;2023-09-08T05:15:08;10.68;;;9.73;;
43994;SDS011;51687;52.160;5.298;2023-09-08T05:17:41;9.50;;;8.80;;
43994;SDS011;51687;52.160;5.298;2023-09-08T05:20:09;10.45;;;9.02;;
43994;SDS011;51687;52.160;5.298;2023-09-08T05:22:36;9.40;;;8.77;;
43994;SDS011;51687;52.160;5.298;2023-09-08T05:25:03;10.18;;;8.95;;
43994;SDS011;51687;52.160;5.298;2023-09-08T05:27:31;9.35;;;8.63;;
43994;SDS011;51687;52.160;5.298;2023-09-08T05:29:58;9.80;;;8.83;;
43994;SDS011;51687;52.160;5.298;2023-09-08T05:32:28;10.10;;;9.23;;
43994;SDS011;51687;52.160;5.298;2023-09-08T05:35:01;9.63;;;8.85;;
43994;SDS011;51687;52.160;5.298;2023-09-08T05:37:28;9.75;;;8.95;;
43994;SDS011;51687;52.160;5.298;2023-09-08T05:39:55;9.27;;;8.52;;
43994;SDS011;51687;52.160;5.298;2023-09-08T05:42:23;9.52;;;8.75;;
43994;SDS011;51687;52.160;5.298;2023-09-08T05:44:50;9.23;;;8.63;;
43994;SDS011;51687;52.160;5.298;2023-09-08T05:47:17;9.23;;;8.52;;
43994;SDS011;51687;52.160;5.298;2023-09-08T05:49:44;8.48;;;7.88;;
43994;SDS011;51687;52.160;5.298;2023-09-08T05:52:11;8.93;;;8.30;;
43994;SDS011;51687;52.160;5.298;2023-09-08T05:54:39;8.32;;;7.72;;
43994;SDS011;51687;52.160;5.298;2023-09-08T05:57:06;8.82;;;8.13;;
43994;SDS011;51687;52.160;5.298;2023-09-08T05:59:33;10.05;;;8.27;;
43994;SDS011;51687;52.160;5.298;2023-09-08T06:02:00;8.70;;;8.00;;
43994;SDS011;51687;52.160;5.298;2023-09-08T06:04:27;9.13;;;8.50;;
43994;SDS011;51687;52.160;5.298;2023-09-08T06:06:58;8.75;;;8.15;;
43994;SDS011;51687;52.160;5.298;2023-09-08T06:09:25;11.13;;;9.30;;
43994;SDS011;51687;52.160;5.298;2023-09-08T06:11:52;10.02;;;9.15;;
43994;SDS011;51687;52.160;5.298;2023-09-08T06:14:21;9.45;;;8.70;;
43994;SDS011;51687;52.160;5.298;2023-09-08T06:16:48;10.20;;;9.40;;
43994;SDS011;51687;52.160;5.298;2023-09-08T06:19:15;9.50;;;8.70;;
43994;SDS011;51687;52.160;5.298;2023-09-08T06:21:42;10.68;;;9.77;;
43994;SDS011;51687;52.160;5.298;2023-09-08T06:24:10;9.73;;;8.82;;
43994;SDS011;51687;52.160;5.298;2023-09-08T06:26:37;9.77;;;9.02;;
43994;SDS011;51687;52.160;5.298;2023-09-08T06:29:04;12.00;;;10.55;;
43994;SDS011;51687;52.160;5.298;2023-09-08T06:31:32;10.45;;;9.63;;
43994;SDS011;51687;52.160;5.298;2023-09-08T06:33:59;11.07;;;10.27;;
43994;SDS011;51687;52.160;5.298;2023-09-08T06:36:28;10.33;;;9.53;;
43994;SDS011;51687;52.160;5.298;2023-09-08T06:38:55;10.02;;;9.13;;
43994;SDS011;51687;52.160;5.298;2023-09-08T06:41:22;10.18;;;9.27;;
43994;SDS011;51687;52.160;5.298;2023-09-08T06:43:50;8.60;;;7.90;;
43994;SDS011;51687;52.160;5.298;2023-09-08T06:46:17;9.93;;;9.10;;
43994;SDS011;51687;52.160;5.298;2023-09-08T06:48:44;9.13;;;8.40;;
43994;SDS011;51687;52.160;5.298;2023-09-08T06:51:11;9.60;;;8.25;;
43994;SDS011;51687;52.160;5.298;2023-09-08T06:53:38;8.98;;;8.18;;
43994;SDS011;51687;52.160;5.298;2023-09-08T06:56:06;8.45;;;7.72;;
43994;SDS011;51687;52.160;5.298;2023-09-08T06:58:33;10.10;;;9.20;;
43994;SDS011;51687;52.160;5.298;2023-09-08T07:01:00;9.80;;;8.90;;
43994;SDS011;51687;52.160;5.298;2023-09-08T07:03:28;9.30;;;8.60;;
43994;SDS011;51687;52.160;5.298;2023-09-08T07:05:55;15.18;;;8.82;;
43994;SDS011;51687;52.160;5.298;2023-09-08T07:08:22;10.63;;;7.60;;
43994;SDS011;51687;52.160;5.298;2023-09-08T07:10:51;10.25;;;7.47;;
43994;SDS011;51687;52.160;5.298;2023-09-08T07:13:20;8.07;;;7.38;;
43994;SDS011;51687;52.160;5.298;2023-09-08T07:15:47;9.57;;;7.68;;
43994;SDS011;51687;52.160;5.298;2023-09-08T07:18:14;9.20;;;8.10;;
43994;SDS011;51687;52.160;5.298;2023-09-08T07:20:45;8.85;;;8.15;;
43994;SDS011;51687;52.160;5.298;2023-09-08T07:23:13;8.15;;;7.55;;
43994;SDS011;51687;52.160;5.298;2023-09-08T07:25:40;8.38;;;7.57;;
43994;SDS011;51687;52.160;5.298;2023-09-08T07:28:07;10.25;;;7.72;;
43994;SDS011;51687;52.160;5.298;2023-09-08T07:30:34;8.43;;;7.13;;
43994;SDS011;51687;52.160;5.298;2023-09-08T07:33:01;7.70;;;6.82;;
43994;SDS011;51687;52.160;5.298;2023-09-08T07:35:31;7.35;;;6.78;;
43994;SDS011;51687;52.160;5.298;2023-09-08T07:37:58;7.05;;;6.55;;
43994;SDS011;51687;52.160;5.298;2023-09-08T07:40:25;7.75;;;7.05;;
43994;SDS011;51687;52.160;5.298;2023-09-08T07:42:52;8.38;;;7.63;;
43994;SDS011;51687;52.160;5.298;2023-09-08T07:45:19;8.80;;;7.03;;
43994;SDS011;51687;52.160;5.298;2023-09-08T07:47:47;8.10;;;7.40;;
43994;SDS011;51687;52.160;5.298;2023-09-08T07:52:48;8.07;;;7.28;;
43994;SDS011;51687;52.160;5.298;2023-09-08T07:57:43;9.90;;;7.07;;
43994;SDS011;51687;52.160;5.298;2023-09-08T08:00:12;7.75;;;7.15;;
43994;SDS011;51687;52.160;5.298;2023-09-08T08:02:41;8.63;;;7.45;;
43994;SDS011;51687;52.160;5.298;2023-09-08T08:05:09;7.28;;;6.68;;
43994;SDS011;51687;52.160;5.298;2023-09-08T08:07:37;7.25;;;6.65;;
43994;SDS011;51687;52.160;5.298;2023-09-08T08:10:05;7.97;;;6.95;;
43994;SDS011;51687;52.160;5.298;2023-09-08T08:12:33;9.68;;;6.80;;
43994;SDS011;51687;52.160;5.298;2023-09-08T08:15:00;8.57;;;6.13;;
43994;SDS011;51687;52.160;5.298;2023-09-08T08:17:28;7.90;;;6.93;;
43994;SDS011;51687;52.160;5.298;2023-09-08T08:19:56;7.68;;;6.88;;
43994;SDS011;51687;52.160;5.298;2023-09-08T08:22:33;7.03;;;6.53;;
43994;SDS011;51687;52.160;5.298;2023-09-08T08:25:00;8.13;;;6.30;;
43994;SDS011;51687;52.160;5.298;2023-09-08T08:27:27;7.82;;;6.75;;
43994;SDS011;51687;52.160;5.298;2023-09-08T08:29:57;10.85;;;6.50;;
43994;SDS011;51687;52.160;5.298;2023-09-08T08:32:27;8.80;;;6.18;;
43994;SDS011;51687;52.160;5.298;2023-09-08T08:34:54;6.68;;;6.18;;
43994;SDS011;51687;52.160;5.298;2023-09-08T08:37:21;6.82;;;6.32;;
43994;SDS011;51687;52.160;5.298;2023-09-08T08:39:49;6.70;;;6.07;;
43994;SDS011;51687;52.160;5.298;2023-09-08T08:42:16;6.78;;;6.15;;
43994;SDS011;51687;52.160;5.298;2023-09-08T08:44:46;6.82;;;6.13;;
43994;SDS011;51687;52.160;5.298;2023-09-08T08:47:13;7.50;;;6.55;;
43994;SDS011;51687;52.160;5.298;2023-09-08T08:49:45;6.95;;;6.13;;
43994;SDS011;51687;52.160;5.298;2023-09-08T08:52:13;7.40;;;5.85;;
43994;SDS011;51687;52.160;5.298;2023-09-08T08:54:41;6.15;;;5.68;;
43994;SDS011;51687;52.160;5.298;2023-09-08T08:57:09;7.47;;;6.45;;
43994;SDS011;51687;52.160;5.298;2023-09-08T08:59:38;5.50;;;5.10;;
43994;SDS011;51687;52.160;5.298;2023-09-08T09:02:07;6.25;;;5.47;;
43994;SDS011;51687;52.160;5.298;2023-09-08T09:04:36;5.63;;;5.13;;
43994;SDS011;51687;52.160;5.298;2023-09-08T09:07:06;5.88;;;5.38;;
43994;SDS011;51687;52.160;5.298;2023-09-08T09:09:34;6.72;;;6.20;;
43994;SDS011;51687;52.160;5.298;2023-09-08T09:12:01;6.28;;;5.63;;
43994;SDS011;51687;52.160;5.298;2023-09-08T09:14:35;5.47;;;5.07;;
43994;SDS011;51687;52.160;5.298;2023-09-08T09:17:02;7.38;;;5.85;;
43994;SDS011;51687;52.160;5.298;2023-09-08T09:19:31;6.10;;;5.43;;
43994;SDS011;51687;52.160;5.298;2023-09-08T09:24:36;7.50;;;5.33;;
43994;SDS011;51687;52.160;5.298;2023-09-08T09:27:05;6.15;;;5.60;;
43994;SDS011;51687;52.160;5.298;2023-09-08T09:32:04;7.00;;;5.43;;
43994;SDS011;51687;52.160;5.298;2023-09-08T09:34:32;6.15;;;5.65;;
43994;SDS011;51687;52.160;5.298;2023-09-08T09:36:59;6.05;;;5.45;;
43994;SDS011;51687;52.160;5.298;2023-09-08T09:39:26;5.90;;;5.22;;
43994;SDS011;51687;52.160;5.298;2023-09-08T09:41:54;5.77;;;5.20;;
43994;SDS011;51687;52.160;5.298;2023-09-08T09:44:22;6.50;;;5.00;;
43994;SDS011;51687;52.160;5.298;2023-09-08T09:46:51;6.57;;;5.78;;
43994;SDS011;51687;52.160;5.298;2023-09-08T09:49:18;6.10;;;5.60;;
43994;SDS011;51687;52.160;5.298;2023-09-08T09:51:47;7.13;;;5.80;;
43994;SDS011;51687;52.160;5.298;2023-09-08T09:54:14;5.30;;;4.90;;
43994;SDS011;51687;52.160;5.298;2023-09-08T09:56:42;5.55;;;5.03;;
43994;SDS011;51687;52.160;5.298;2023-09-08T09:59:12;6.25;;;5.75;;
43994;SDS011;51687;52.160;5.298;2023-09-08T10:01:40;8.48;;;6.10;;
43994;SDS011;51687;52.160;5.298;2023-09-08T10:04:09;7.50;;;5.70;;
43994;SDS011;51687;52.160;5.298;2023-09-08T10:09:05;6.00;;;5.40;;
43994;SDS011;51687;52.160;5.298;2023-09-08T10:11:49;5.68;;;5.07;;
43994;SDS011;51687;52.160;5.298;2023-09-08T10:14:18;8.60;;;5.80;;
43994;SDS011;51687;52.160;5.298;2023-09-08T10:16:45;5.38;;;4.95;;
43994;SDS011;51687;52.160;5.298;2023-09-08T10:19:16;5.32;;;4.90;;
43994;SDS011;51687;52.160;5.298;2023-09-08T10:21:46;8.82;;;5.60;;
43994;SDS011;51687;52.160;5.298;2023-09-08T10:24:26;5.05;;;4.70;;
43994;SDS011;51687;52.160;5.298;2023-09-08T10:29:28;4.95;;;4.55;;
43994;SDS011;51687;52.160;5.298;2023-09-08T10:31:56;4.97;;;4.47;;
43994;SDS011;51687;52.160;5.298;2023-09-08T10:34:24;6.60;;;5.60;;
43994;SDS011;51687;52.160;5.298;2023-09-08T10:36:52;5.38;;;4.97;;
43994;SDS011;51687;52.160;5.298;2023-09-08T10:39:35;5.80;;;4.93;;
43994;SDS011;51687;52.160;5.298;2023-09-08T10:47:19;6.53;;;4.78;;
43994;SDS011;51687;52.160;5.298;2023-09-08T10:49:46;5.25;;;4.65;;
43994;SDS011;51687;52.160;5.298;2023-09-08T10:52:13;7.03;;;5.93;;
43994;SDS011;51687;52.160;5.298;2023-09-08T10:54:43;4.85;;;4.40;;
43994;SDS011;51687;52.160;5.298;2023-09-08T10:57:13;8.75;;;4.90;;
43994;SDS011;51687;52.160;5.298;2023-09-08T11:00:24;5.60;;;4.70;;
43994;SDS011;51687;52.160;5.298;2023-09-08T11:02:39;5.60;;;5.05;;
43994;SDS011;51687;52.160;5.298;2023-09-08T11:05:08;5.53;;;5.13;;
43994;SDS011;51687;52.160;5.298;2023-09-08T11:12:31;4.77;;;4.43;;
43994;SDS011;51687;52.160;5.298;2023-09-08T11:14:59;5.50;;;5.05;;
43994;SDS011;51687;52.160;5.298;2023-09-08T11:17:31;5.45;;;5.05;;
43994;SDS011;51687;52.160;5.298;2023-09-08T11:20:01;5.00;;;4.28;;
43994;SDS011;51687;52.160;5.298;2023-09-08T11:22:34;5.30;;;4.80;;
43994;SDS011;51687;52.160;5.298;2023-09-08T11:25:01;6.13;;;4.47;;
43994;SDS011;51687;52.160;5.298;2023-09-08T11:27:32;8.80;;;4.60;;
43994;SDS011;51687;52.160;5.298;2023-09-08T11:29:59;5.27;;;4.77;;
43994;SDS011;51687;52.160;5.298;2023-09-08T11:32:33;4.97;;;4.57;;
43994;SDS011;51687;52.160;5.298;2023-09-08T11:35:03;8.30;;;5.55;;
43994;SDS011;51687;52.160;5.298;2023-09-08T11:37:30;4.32;;;4.00;;
43994;SDS011;51687;52.160;5.298;2023-09-08T11:39:57;5.50;;;4.10;;
43994;SDS011;51687;52.160;5.298;2023-09-08T11:42:25;5.53;;;4.97;;
43994;SDS011;51687;52.160;5.298;2023-09-08T11:44:52;5.03;;;4.50;;
43994;SDS011;51687;52.160;5.298;2023-09-08T11:47:20;5.40;;;4.60;;
43994;SDS011;51687;52.160;5.298;2023-09-08T11:49:47;6.97;;;4.63;;
43994;SDS011;51687;52.160;5.298;2023-09-08T11:52:14;5.50;;;5.00;;
43994;SDS011;51687;52.160;5.298;2023-09-08T11:54:41;8.57;;;5.10;;
43994;SDS011;51687;52.160;5.298;2023-09-08T11:57:29;5.15;;;4.68;;
43994;SDS011;51687;52.160;5.298;2023-09-08T11:59:56;5.13;;;4.63;;
43994;SDS011;51687;52.160;5.298;2023-09-08T12:02:23;5.75;;;4.38;;
43994;SDS011;51687;52.160;5.298;2023-09-08T12:04:52;6.30;;;4.00;;
43994;SDS011;51687;52.160;5.298;2023-09-08T12:07:20;7.97;;;4.47;;
43994;SDS011;51687;52.160;5.298;2023-09-08T12:09:47;5.47;;;4.37;;
43994;SDS011;51687;52.160;5.298;2023-09-08T12:12:14;8.10;;;5.13;;
43994;SDS011;51687;52.160;5.298;2023-09-08T12:14:42;8.40;;;4.43;;
43994;SDS011;51687;52.160;5.298;2023-09-08T12:17:13;6.18;;;3.90;;
43994;SDS011;51687;52.160;5.298;2023-09-08T12:19:43;4.85;;;4.45;;
43994;SDS011;51687;52.160;5.298;2023-09-08T12:22:10;8.50;;;3.87;;
43994;SDS011;51687;52.160;5.298;2023-09-08T12:27:23;4.40;;;4.00;;
43994;SDS011;51687;52.160;5.298;2023-09-08T12:29:57;5.80;;;4.15;;
43994;SDS011;51687;52.160;5.298;2023-09-08T12:32:28;4.68;;;3.83;;
43994;SDS011;51687;52.160;5.298;2023-09-08T12:34:56;6.57;;;3.83;;
43994;SDS011;51687;52.160;5.298;2023-09-08T12:37:24;6.10;;;3.90;;
43994;SDS011;51687;52.160;5.298;2023-09-08T12:39:54;4.50;;;4.15;;
43994;SDS011;51687;52.160;5.298;2023-09-08T12:42:21;9.23;;;4.00;;
43994;SDS011;51687;52.160;5.298;2023-09-08T12:44:52;4.43;;;4.00;;
43994;SDS011;51687;52.160;5.298;2023-09-08T12:47:19;4.70;;;3.80;;
43994;SDS011;51687;52.160;5.298;2023-09-08T12:49:47;3.97;;;3.67;;
43994;SDS011;51687;52.160;5.298;2023-09-08T12:52:14;6.03;;;4.03;;
43994;SDS011;51687;52.160;5.298;2023-09-08T12:54:41;4.28;;;3.80;;
43994;SDS011;51687;52.160;5.298;2023-09-08T12:57:08;5.47;;;4.28;;
43994;SDS011;51687;52.160;5.298;2023-09-08T12:59:35;6.50;;;4.00;;
43994;SDS011;51687;52.160;5.298;2023-09-08T13:02:02;5.77;;;4.30;;
43994;SDS011;51687;52.160;5.298;2023-09-08T13:04:29;8.32;;;4.18;;
43994;SDS011;51687;52.160;5.298;2023-09-08T13:06:57;6.30;;;3.65;;
43994;SDS011;51687;52.160;5.298;2023-09-08T13:09:24;5.40;;;3.42;;
43994;SDS011;51687;52.160;5.298;2023-09-08T13:11:52;4.45;;;3.38;;
43994;SDS011;51687;52.160;5.298;2023-09-08T13:14:19;8.00;;;3.77;;
43994;SDS011;51687;52.160;5.298;2023-09-08T13:16:46;5.13;;;3.70;;
43994;SDS011;51687;52.160;5.298;2023-09-08T13:19:13;5.20;;;3.53;;
43994;SDS011;51687;52.160;5.298;2023-09-08T13:21:40;4.33;;;3.67;;
43994;SDS011;51687;52.160;5.298;2023-09-08T13:24:08;4.53;;;4.10;;
43994;SDS011;51687;52.160;5.298;2023-09-08T13:26:35;3.67;;;3.38;;
43994;SDS011;51687;52.160;5.298;2023-09-08T13:29:05;3.75;;;3.45;;
43994;SDS011;51687;52.160;5.298;2023-09-08T13:31:31;4.25;;;3.95;;
43994;SDS011;51687;52.160;5.298;2023-09-08T13:33:59;7.67;;;3.37;;
43994;SDS011;51687;52.160;5.298;2023-09-08T13:36:25;4.25;;;3.95;;
43994;SDS011;51687;52.160;5.298;2023-09-08T13:38:52;6.57;;;3.78;;
43994;SDS011;51687;52.160;5.298;2023-09-08T13:41:19;5.97;;;4.35;;
43994;SDS011;51687;52.160;5.298;2023-09-08T13:43:45;6.72;;;3.83;;
43994;SDS011;51687;52.160;5.298;2023-09-08T13:46:13;5.13;;;4.13;;
43994;SDS011;51687;52.160;5.298;2023-09-08T13:48:40;6.55;;;4.25;;
43994;SDS011;51687;52.160;5.298;2023-09-08T13:51:08;3.92;;;3.60;;
43994;SDS011;51687;52.160;5.298;2023-09-08T13:53:36;5.03;;;4.32;;
43994;SDS011;51687;52.160;5.298;2023-09-08T13:56:12;5.20;;;3.88;;
43994;SDS011;51687;52.160;5.298;2023-09-08T13:58:40;10.23;;;4.63;;
43994;SDS011;51687;52.160;5.298;2023-09-08T14:01:16;5.05;;;3.63;;
43994;SDS011;51687;52.160;5.298;2023-09-08T14:03:45;7.07;;;4.20;;
43994;SDS011;51687;52.160;5.298;2023-09-08T14:06:15;7.22;;;4.13;;
43994;SDS011;51687;52.160;5.298;2023-09-08T14:08:47;7.22;;;4.25;;
43994;SDS011;51687;52.160;5.298;2023-09-08T14:11:34;5.38;;;4.40;;
43994;SDS011;51687;52.160;5.298;2023-09-08T14:14:21;7.00;;;3.78;;
43994;SDS011;51687;52.160;5.298;2023-09-08T14:16:48;5.30;;;3.83;;
43994;SDS011;51687;52.160;5.298;2023-09-08T14:19:14;5.18;;;4.03;;
43994;SDS011;51687;52.160;5.298;2023-09-08T14:21:41;4.93;;;4.15;;
43994;SDS011;51687;52.160;5.298;2023-09-08T14:24:08;4.45;;;4.07;;
43994;SDS011;51687;52.160;5.298;2023-09-08T14:26:35;4.97;;;3.97;;
43994;SDS011;51687;52.160;5.298;2023-09-08T14:29:01;8.75;;;3.92;;
43994;SDS011;51687;52.160;5.298;2023-09-08T14:31:29;4.32;;;3.92;;
43994;SDS011;51687;52.160;5.298;2023-09-08T14:33:56;4.35;;;3.95;;
43994;SDS011;51687;52.160;5.298;2023-09-08T14:36:23;13.02;;;3.83;;
43994;SDS011;51687;52.160;5.298;2023-09-08T14:38:50;6.47;;;3.88;;
43994;SDS011;51687;52.160;5.298;2023-09-08T14:41:17;5.72;;;4.28;;
43994;SDS011;51687;52.160;5.298;2023-09-08T14:43:44;4.75;;;4.25;;
43994;SDS011;51687;52.160;5.298;2023-09-08T14:46:11;4.53;;;4.13;;
43994;SDS011;51687;52.160;5.298;2023-09-08T14:48:38;5.75;;;4.20;;
43994;SDS011;51687;52.160;5.298;2023-09-08T14:51:06;5.22;;;4.68;;
43994;SDS011;51687;52.160;5.298;2023-09-08T14:53:33;4.95;;;4.50;;
43994;SDS011;51687;52.160;5.298;2023-09-08T14:56:00;6.13;;;4.53;;
43994;SDS011;51687;52.160;5.298;2023-09-08T14:58:27;5.50;;;4.15;;
43994;SDS011;51687;52.160;5.298;2023-09-08T15:01:01;5.28;;;4.75;;
43994;SDS011;51687;52.160;5.298;2023-09-08T15:03:31;5.95;;;3.90;;
43994;SDS011;51687;52.160;5.298;2023-09-08T15:05:58;5.53;;;4.00;;
43994;SDS011;51687;52.160;5.298;2023-09-08T15:08:25;4.35;;;3.83;;
43994;SDS011;51687;52.160;5.298;2023-09-08T15:10:52;8.48;;;3.67;;
43994;SDS011;51687;52.160;5.298;2023-09-08T15:13:19;5.25;;;3.78;;
43994;SDS011;51687;52.160;5.298;2023-09-08T15:15:49;6.68;;;5.35;;
43994;SDS011;51687;52.160;5.298;2023-09-08T15:18:15;6.35;;;4.00;;
43994;SDS011;51687;52.160;5.298;2023-09-08T15:20:50;4.03;;;3.65;;
43994;SDS011;51687;52.160;5.298;2023-09-08T15:23:19;4.20;;;3.80;;
43994;SDS011;51687;52.160;5.298;2023-09-08T15:25:52;7.18;;;4.47;;
43994;SDS011;51687;52.160;5.298;2023-09-08T15:28:21;4.55;;;3.78;;
43994;SDS011;51687;52.160;5.298;2023-09-08T15:30:51;6.95;;;3.63;;